createdAt,value
2018-02-22T00:01:52.939Z,101000.69
2018-02-22T00:04:22.070Z,100997.13
2018-02-22T00:06:52.105Z,101003.63
2018-02-22T00:09:22.021Z,100994.50
2018-02-22T00:11:51.170Z,100986.30
2018-02-22T00:14:20.290Z,100986.36
2018-02-22T00:16:50.150Z,100980.47
2018-02-22T00:19:19.268Z,100985.38
2018-02-22T00:21:48.366Z,100980.16
2018-02-22T00:24:17.454Z,100977.66
2018-02-22T00:26:46.579Z,100975.74
2018-02-22T00:29:15.689Z,100978.16
2018-02-22T00:31:44.808Z,100973.05
2018-02-22T00:34:13.898Z,100967.77
2018-02-22T00:36:43.024Z,100971.61
2018-02-22T00:39:12.112Z,100967.77
2018-02-22T00:41:41.222Z,100968.35
2018-02-22T00:44:10.334Z,100965.86
2018-02-22T00:46:39.453Z,100958.05
2018-02-22T00:49:08.540Z,100959.09
2018-02-22T00:51:37.643Z,100959.88
2018-02-22T00:54:06.740Z,100961.02
2018-02-22T00:56:35.869Z,100957.31
2018-02-22T00:59:05.732Z,100955.61
2018-02-22T01:01:34.828Z,100957.09
2018-02-22T01:04:03.954Z,100957.11
2018-02-22T01:06:33.846Z,100958.87
2018-02-22T01:09:02.953Z,100958.55
2018-02-22T01:11:32.046Z,100964.86
2018-02-22T01:14:01.158Z,100952.52
2018-02-22T01:16:31.386Z,100957.42
2018-02-22T01:19:01.250Z,100955.25
2018-02-22T01:21:30.369Z,100961.36
2018-02-22T01:23:59.454Z,100956.80
2018-02-22T01:26:28.585Z,100962.07
2018-02-22T01:28:58.437Z,100955.13
2018-02-22T01:31:28.694Z,100958.02
2018-02-22T01:33:57.783Z,100953.21
2018-02-22T01:36:26.885Z,100955.97
2018-02-22T01:38:55.984Z,100950.26
2018-02-22T01:41:25.078Z,100949.27
2018-02-22T01:43:54.196Z,100946.72
2018-02-22T01:46:24.090Z,100937.73
2018-02-22T01:48:53.173Z,100929.14
2018-02-22T01:51:22.302Z,100927.55
2018-02-22T01:53:52.184Z,100922.44
2018-02-22T01:56:21.290Z,100923.89
2018-02-22T01:58:50.406Z,100922.17
2018-02-22T02:01:19.503Z,100924.08
2018-02-22T02:03:48.605Z,100923.28
2018-02-22T02:06:18.462Z,100922.14
2018-02-22T02:08:47.607Z,100919.06
2018-02-22T02:11:16.695Z,100918.32
2018-02-22T02:13:45.823Z,100919.47
2018-02-22T02:16:16.281Z,100916.61
2018-02-22T02:18:45.386Z,100911.44
2018-02-22T02:21:14.501Z,100908.92
2018-02-22T02:23:43.601Z,100906.09
2018-02-22T02:26:12.722Z,100909.17
2018-02-22T02:28:41.818Z,100910.52
2018-02-22T02:31:11.698Z,100908.40
2018-02-22T02:33:40.796Z,100906.27
2018-02-22T02:36:10.684Z,100907.20
2018-02-22T02:38:39.771Z,100898.10
2018-02-22T02:41:08.898Z,100904.46
2018-02-22T02:43:38.018Z,100903.22
2018-02-22T02:46:07.118Z,100896.60
2018-02-22T02:48:37.282Z,100901.05
2018-02-22T02:51:06.387Z,100896.36
2018-02-22T02:53:36.339Z,100890.72
2018-02-22T02:56:05.454Z,100898.45
2018-02-22T02:58:35.297Z,100891.84
2018-02-22T03:01:04.404Z,100884.97
2018-02-22T03:03:33.522Z,100886.78
2018-02-22T03:06:03.420Z,100883.22
2018-02-22T03:08:32.566Z,100883.22
2018-02-22T03:11:01.673Z,100884.03
2018-02-22T03:13:31.556Z,100880.34
2018-02-22T03:16:00.680Z,100880.91
2018-02-22T03:18:30.549Z,100881.37
2018-02-22T03:21:00.458Z,100873.96
2018-02-22T03:23:29.584Z,100873.57
2018-02-22T03:25:58.674Z,100873.70
2018-02-22T03:28:27.797Z,100876.06
2018-02-22T03:30:57.664Z,100886.86
2018-02-22T03:33:26.803Z,100881.75
2018-02-22T03:35:56.682Z,100884.84
2018-02-22T03:38:26.543Z,100889.95
2018-02-22T03:40:56.402Z,100888.70
2018-02-22T03:43:26.272Z,100882.65
2018-02-22T03:45:56.148Z,100883.70
2018-02-22T03:48:25.233Z,100878.69
2018-02-22T03:50:54.345Z,100883.06
2018-02-22T03:53:24.954Z,100883.57
2018-02-22T03:55:54.069Z,100881.36
2018-02-22T03:58:23.165Z,100879.64
2018-02-22T04:00:52.286Z,100873.88
2018-02-22T04:03:22.150Z,100878.84
2018-02-22T04:05:51.258Z,100884.05
2018-02-22T04:08:20.376Z,100885.20
2018-02-22T04:10:49.459Z,100883.68
2018-02-22T04:13:18.596Z,100878.00
2018-02-22T04:15:48.445Z,100883.78
2018-02-22T04:18:17.552Z,100883.13
2018-02-22T04:20:46.657Z,100890.20
2018-02-22T04:23:15.731Z,100883.80
2018-02-22T04:25:44.834Z,100889.95
2018-02-22T04:28:13.930Z,100893.18
2018-02-22T04:30:43.076Z,100895.61
2018-02-22T04:33:12.947Z,100900.45
2018-02-22T04:35:42.033Z,100893.94
2018-02-22T04:38:11.155Z,100887.52
2018-02-22T04:40:40.257Z,100890.06
2018-02-22T04:43:09.354Z,100893.07
2018-02-22T04:45:38.484Z,100898.01
2018-02-22T04:48:08.358Z,100892.28
2018-02-22T04:50:38.957Z,100887.56
2018-02-22T04:53:08.063Z,100887.64
2018-02-22T04:55:37.157Z,100883.66
2018-02-22T04:58:06.278Z,100886.56
2018-02-22T05:00:36.418Z,100888.77
2018-02-22T05:03:05.499Z,100890.66
2018-02-22T05:05:34.623Z,100885.08
2018-02-22T05:08:04.491Z,100889.11
2018-02-22T05:10:33.640Z,100895.37
2018-02-22T05:13:03.489Z,100898.89
2018-02-22T05:15:32.605Z,100895.54
2018-02-22T05:18:01.720Z,100895.20
2018-02-22T05:20:30.831Z,100888.66
2018-02-22T05:23:00.698Z,100891.37
2018-02-22T05:25:29.806Z,100890.86
2018-02-22T05:27:58.929Z,100892.20
2018-02-22T05:30:28.034Z,100884.17
2018-02-22T05:32:57.909Z,100889.23
2018-02-22T05:35:27.038Z,100885.06
2018-02-22T05:37:56.912Z,100879.34
2018-02-22T05:40:26.023Z,100878.61
2018-02-22T05:42:55.135Z,100884.41
2018-02-22T05:45:24.251Z,100878.76
2018-02-22T05:47:54.131Z,100887.91
2018-02-22T05:50:23.222Z,100882.05
2018-02-22T05:52:52.338Z,100885.04
2018-02-22T05:55:22.224Z,100883.72
2018-02-22T05:57:51.363Z,100887.09
2018-02-22T06:00:21.237Z,100884.00
2018-02-22T06:02:50.326Z,100887.05
2018-02-22T06:05:19.435Z,100887.46
2018-02-22T06:07:48.592Z,100883.02
2018-02-22T06:10:18.412Z,100883.00
2018-02-22T06:12:47.523Z,100883.87
2018-02-22T06:15:16.601Z,100875.66
2018-02-22T06:17:45.738Z,100886.94
2018-02-22T06:20:14.843Z,100885.73
2018-02-22T06:22:43.952Z,100885.25
2018-02-22T06:25:13.828Z,100891.59
2018-02-22T06:27:42.939Z,100897.48
2018-02-22T06:30:12.059Z,100892.32
2018-02-22T06:32:41.945Z,100898.37
2018-02-22T06:35:11.109Z,100893.64
2018-02-22T06:37:40.247Z,100894.34
2018-02-22T06:40:09.348Z,100894.14
2018-02-22T06:42:38.469Z,100892.39
2018-02-22T06:45:08.339Z,100901.46
2018-02-22T06:47:37.462Z,100906.99
2018-02-22T06:50:07.347Z,100904.56
2018-02-22T06:52:36.435Z,100905.13
2018-02-22T06:55:05.548Z,100907.48
2018-02-22T06:57:34.635Z,100908.97
2018-02-22T07:00:03.771Z,100910.33
2018-02-22T07:02:32.877Z,100911.60
2018-02-22T07:05:02.759Z,100906.20
2018-02-22T07:07:31.888Z,100912.45
2018-02-22T07:10:01.789Z,100910.61
2018-02-22T07:12:30.904Z,100911.67
2018-02-22T07:15:00.775Z,100911.81
2018-02-22T07:17:29.882Z,100907.02
2018-02-22T07:19:59.018Z,100912.90
2018-02-22T07:22:28.136Z,100914.76
2018-02-22T07:24:57.235Z,100914.07
2018-02-22T07:27:26.397Z,100914.76
2018-02-22T07:29:56.258Z,100916.45
2018-02-22T07:32:25.360Z,100916.30
2018-02-22T07:34:54.477Z,100915.39
2018-02-22T07:37:23.602Z,100921.18
2018-02-22T07:39:53.466Z,100923.80
2018-02-22T07:42:22.585Z,100922.68
2018-02-22T07:44:51.681Z,100921.30
2018-02-22T07:47:21.072Z,100919.61
2018-02-22T07:49:50.161Z,100917.55
2018-02-22T07:52:19.264Z,100921.95
2018-02-22T07:54:48.392Z,100911.98
2018-02-22T07:57:19.030Z,100909.36
2018-02-22T07:59:48.881Z,100915.50
2018-02-22T08:02:17.991Z,100913.18
2018-02-22T08:04:47.079Z,100916.02
2018-02-22T08:07:16.208Z,100918.94
2018-02-22T08:09:45.325Z,100925.66
2018-02-22T08:12:15.198Z,100919.23
2018-02-22T08:14:44.302Z,100924.13
2018-02-22T08:17:13.428Z,100921.76
2018-02-22T08:19:42.531Z,100920.00
2018-02-22T08:22:12.416Z,100923.81
2018-02-22T08:24:41.504Z,100919.00
2018-02-22T08:27:10.634Z,100921.20
2018-02-22T08:29:40.508Z,100921.13
2018-02-22T08:32:09.693Z,100917.91
2018-02-22T08:34:38.819Z,100912.67
2018-02-22T08:37:07.932Z,100914.69
2018-02-22T08:39:37.022Z,100914.06
2018-02-22T08:42:06.910Z,100916.86
2018-02-22T08:44:36.011Z,100917.58
2018-02-22T08:47:05.132Z,100907.29
2018-02-22T11:18:51.494Z,100823.55
2018-02-22T11:21:39.370Z,100817.98
2018-02-22T11:24:13.843Z,100816.80
2018-02-22T11:26:57.296Z,100816.17
2018-02-22T11:29:38.635Z,100814.33
2018-02-22T11:32:16.734Z,100799.27
2018-02-22T11:34:53.418Z,100792.83
2018-02-22T11:37:30.351Z,100800.76
2018-02-22T11:40:06.333Z,100797.27
2018-02-22T11:42:43.211Z,100785.09
2018-02-22T11:45:19.299Z,100785.47
2018-02-22T11:47:53.855Z,100778.48
2018-02-22T11:50:29.532Z,100767.82
2018-02-22T11:53:03.997Z,100772.45
2018-02-22T11:55:39.566Z,100768.51
2018-02-22T11:58:14.541Z,100769.05
2018-02-22T12:00:49.715Z,100759.67
2018-02-22T12:03:25.392Z,100758.44
2018-02-22T12:06:01.704Z,100756.69
2018-02-22T12:08:36.805Z,100756.55
2018-02-22T12:11:12.342Z,100751.82
2018-02-22T12:13:47.205Z,100748.41
2018-02-22T12:16:22.931Z,100744.44
2018-02-22T12:21:38.518Z,100742.26
2018-02-22T12:24:14.597Z,100736.44
2018-02-22T12:26:45.624Z,100742.41
2018-02-22T12:29:14.889Z,100734.36
2018-02-22T12:31:44.163Z,100747.32
2018-02-22T12:34:13.227Z,100751.48
2018-02-22T12:36:42.729Z,100737.73
2018-02-22T12:39:11.895Z,100742.50
2018-02-22T12:41:41.052Z,100740.46
2018-02-22T12:44:10.294Z,100736.48
2018-02-22T12:46:39.524Z,100729.98
2018-02-22T12:49:08.987Z,100726.58
2018-02-22T12:51:38.892Z,100719.63
2018-02-22T12:54:08.441Z,100719.40
2018-02-22T12:56:37.789Z,100728.08
2018-02-22T12:59:06.837Z,100724.03
2018-02-22T13:01:36.227Z,100724.00
2018-02-22T13:04:05.399Z,100719.00
2018-02-22T13:06:35.367Z,100723.31
2018-02-22T13:09:04.485Z,100729.72
2018-02-22T13:11:33.554Z,100718.98
2018-02-22T13:14:02.644Z,100716.53
2018-02-22T13:16:31.714Z,100722.55
2018-02-22T13:19:00.789Z,100717.03
2018-02-22T13:21:30.844Z,100717.38
2018-02-22T13:23:59.937Z,100716.45
2018-02-22T13:26:29.524Z,100710.60
2018-02-22T13:28:59.492Z,100712.81
2018-02-22T13:31:28.901Z,100705.94
2018-02-22T13:34:16.181Z,100700.64
2018-02-22T13:36:45.357Z,100695.63
2018-02-22T13:39:15.307Z,100700.25
2018-02-22T13:41:44.743Z,100695.31
2018-02-22T13:44:31.755Z,100694.89
2018-02-22T13:47:01.025Z,100688.23
2018-02-22T13:49:47.810Z,100691.25
2018-02-22T13:52:17.711Z,100695.30
2018-02-22T13:54:46.989Z,100681.31
2018-02-22T13:57:20.267Z,100693.48
2018-02-22T13:59:49.378Z,100689.69
2018-02-22T14:02:33.374Z,100698.99
2018-02-22T14:05:02.743Z,100693.11
2018-02-22T14:07:32.124Z,100689.24
2018-02-22T14:10:01.207Z,100690.22
2018-02-22T14:12:30.437Z,100686.50
2018-02-22T14:14:59.523Z,100690.59
2018-02-22T14:17:28.630Z,100687.01
2018-02-22T14:19:57.953Z,100685.14
2018-02-22T14:22:28.694Z,100682.30
2018-02-22T14:24:57.818Z,100685.63
2018-02-22T14:27:26.973Z,100680.61
2018-02-22T14:29:56.159Z,100685.19
2018-02-22T14:32:25.289Z,100677.42
2018-02-22T14:34:55.403Z,100682.56
2018-02-22T14:37:24.563Z,100683.50
2018-02-22T14:39:53.682Z,100681.95
2018-02-22T14:42:23.864Z,100682.30
2018-02-22T14:44:54.361Z,100679.69
2018-02-22T14:47:23.789Z,100684.16
2018-02-22T14:49:53.912Z,100669.48
2018-02-22T14:52:27.889Z,100671.41
2018-02-22T14:54:59.331Z,100665.79
2018-02-22T14:57:31.441Z,100661.13
2018-02-22T15:00:00.797Z,100659.83
2018-02-22T15:02:30.476Z,100653.25
2018-02-22T15:05:00.511Z,100655.66
2018-02-22T15:07:30.371Z,100646.45
2018-02-22T15:09:59.705Z,100651.09
2018-02-22T15:12:28.832Z,100652.97
2018-02-22T15:15:00.316Z,100665.69
2018-02-22T15:17:29.622Z,100672.34
2018-02-22T15:19:59.095Z,100667.92
2018-02-22T15:22:28.244Z,100663.58
2018-02-22T15:24:57.442Z,100654.27
2018-02-22T15:27:26.549Z,100672.61
2018-02-22T15:29:57.221Z,100661.34
2018-02-22T15:32:35.020Z,100679.51
2018-02-22T15:35:04.416Z,100658.56
2018-02-22T15:37:34.524Z,100665.73
2018-02-22T15:40:04.299Z,100673.77
2018-02-22T15:42:33.606Z,100672.92
2018-02-22T15:45:03.053Z,100672.05
2018-02-22T15:47:36.972Z,100672.38
2018-02-22T15:50:09.303Z,100660.34
2018-02-22T15:52:38.864Z,100672.89
2018-02-22T15:55:07.990Z,100668.22
2018-02-22T15:57:38.888Z,100682.05
2018-02-22T16:00:08.219Z,100677.09
2018-02-22T16:02:37.517Z,100680.63
2018-02-22T16:05:06.895Z,100679.92
2018-02-22T16:07:36.253Z,100680.40
2018-02-22T16:10:05.343Z,100681.05
2018-02-22T16:12:34.610Z,100676.44
2018-02-22T16:15:03.971Z,100681.28
2018-02-22T16:17:34.904Z,100681.44
2018-02-22T16:20:05.802Z,100675.73
2018-02-22T16:22:34.933Z,100678.03
2018-02-22T16:25:04.192Z,100682.80
2018-02-22T16:27:33.698Z,100682.80
2018-02-22T16:30:03.206Z,100683.81
2018-02-22T16:32:32.400Z,100685.02
2018-02-22T16:35:02.037Z,100686.05
2018-02-22T16:37:31.105Z,100690.01
2018-02-22T16:40:05.154Z,100695.98
2018-02-22T16:42:35.381Z,100687.22
2018-02-22T16:47:49.796Z,100690.50
2018-02-22T16:50:20.992Z,100695.66
2018-02-22T16:52:51.866Z,100698.86
2018-02-22T16:55:24.294Z,100707.69
2018-02-22T16:57:55.694Z,100708.67
2018-02-22T17:00:36.574Z,100714.89
2018-02-22T17:03:08.135Z,100707.52
2018-02-22T17:05:40.524Z,100713.77
2018-02-22T17:08:11.733Z,100719.28
2018-02-22T17:10:49.528Z,100724.92
2018-02-22T17:13:21.097Z,100715.17
2018-02-22T17:15:52.067Z,100713.04
2018-02-22T17:18:22.440Z,100719.28
2018-02-22T17:20:54.521Z,100721.77
2018-02-22T17:23:25.619Z,100725.14
2018-02-22T17:26:03.442Z,100724.82
2018-02-22T17:28:40.640Z,100733.06
2018-02-22T17:31:16.136Z,100738.17
2018-02-22T17:33:45.427Z,100729.37
2018-02-22T17:49:46.228Z,100741.78
2018-02-22T17:52:18.497Z,100738.87
2018-02-22T17:54:50.252Z,100746.36
2018-02-22T17:57:21.232Z,100743.66
2018-02-22T17:59:53.990Z,100751.25
2018-02-22T18:02:25.587Z,100758.30
2018-02-22T18:04:54.633Z,100762.21
2018-02-22T18:07:23.772Z,100755.45
2018-02-22T18:09:54.041Z,100763.15
2018-02-22T18:12:23.874Z,100769.38
2018-02-22T18:14:53.384Z,100776.33
2018-02-22T18:17:22.649Z,100769.98
2018-02-22T18:19:52.493Z,100763.95
2018-02-22T18:22:21.620Z,100768.91
2018-02-22T18:24:53.865Z,100768.80
2018-02-22T18:27:23.433Z,100766.84
2018-02-22T18:29:52.594Z,100769.02
2018-02-22T18:32:21.935Z,100773.34
2018-02-22T18:34:51.504Z,100772.64
2018-02-22T18:37:26.203Z,100775.63
2018-02-22T18:39:55.332Z,100777.98
2018-02-22T18:42:24.576Z,100782.77
2018-02-22T18:44:59.186Z,100783.06
2018-02-22T18:47:28.785Z,100778.52
2018-02-22T18:49:58.669Z,100774.62
2018-02-22T18:52:28.505Z,100777.36
2018-02-22T18:54:57.622Z,100776.74
2018-02-22T18:57:27.500Z,100776.22
2018-02-22T18:59:57.638Z,100779.78
2018-02-22T19:02:27.100Z,100774.58
2018-02-22T19:04:57.973Z,100782.59
2018-02-22T19:07:27.098Z,100785.28
2018-02-22T19:09:56.218Z,100791.20
2018-02-22T19:12:25.346Z,100782.96
2018-02-22T19:14:54.451Z,100783.19
2018-02-22T19:17:23.588Z,100787.34
2018-02-22T19:19:52.712Z,100781.84
2018-02-22T19:22:24.318Z,100785.58
2018-02-22T19:24:54.204Z,100782.44
2018-02-22T19:27:23.335Z,100781.74
2018-02-22T19:29:53.224Z,100788.55
2018-02-22T19:32:22.382Z,100784.98
2018-02-22T19:34:51.509Z,100778.24
2018-02-22T19:37:20.660Z,100794.14
2018-02-22T19:39:50.548Z,100789.85
2018-02-22T19:42:20.474Z,100787.89
2018-02-22T19:44:50.367Z,100792.38
2018-02-22T19:47:19.493Z,100786.56
2018-02-22T19:49:48.607Z,100789.30
2018-02-22T19:52:17.764Z,100790.17
2018-02-22T19:54:47.662Z,100792.53
2018-02-22T19:57:16.752Z,100788.47
2018-02-22T19:59:49.626Z,100784.02
2018-02-22T20:02:18.719Z,100779.75
2018-02-22T20:04:47.846Z,100780.45
2018-02-22T20:07:16.979Z,100783.02
2018-02-22T20:09:46.104Z,100783.23
2018-02-22T20:12:15.230Z,100786.56
2018-02-22T20:14:44.349Z,100786.85
2018-02-22T20:17:13.500Z,100792.23
2018-02-22T20:19:42.658Z,100786.47
2018-02-22T20:22:11.798Z,100786.77
2018-02-22T20:24:40.899Z,100792.53
2018-02-22T20:27:10.016Z,100783.56
2018-02-22T20:29:39.924Z,100782.36
2018-02-22T20:32:09.066Z,100786.53
2018-02-22T20:34:38.210Z,100783.07
2018-02-22T20:37:07.324Z,100782.31
2018-02-22T20:39:37.219Z,100782.34
2018-02-22T20:42:06.316Z,100790.48
2018-02-22T20:44:35.468Z,100792.48
2018-02-22T20:47:04.589Z,100793.06
2018-02-22T20:49:33.763Z,100788.52
2018-02-22T20:52:02.876Z,100789.48
2018-02-22T20:54:31.991Z,100788.30
2018-02-22T20:57:01.093Z,100788.55
2018-02-22T20:59:30.197Z,100798.95
2018-02-22T21:01:59.321Z,100797.62
2018-02-22T21:04:28.431Z,100800.63
2018-02-22T21:06:57.569Z,100799.92
2018-02-22T21:09:26.664Z,100791.46
2018-02-22T21:11:55.818Z,100793.70
2018-02-22T21:14:24.925Z,100797.59
2018-02-22T21:16:54.831Z,100798.68
2018-02-22T21:19:23.967Z,100795.22
2018-02-22T21:21:53.095Z,100791.58
2018-02-22T21:24:22.977Z,100792.61
2018-02-22T21:26:52.093Z,100792.73
2018-02-22T21:29:21.204Z,100792.80
2018-02-22T21:31:51.113Z,100789.73
2018-02-22T21:34:21.000Z,100798.25
2018-02-22T21:36:50.121Z,100793.19
2018-02-22T21:39:19.231Z,100799.31
2018-02-22T21:41:48.362Z,100800.20
2018-02-22T21:44:17.472Z,100797.07
2018-02-22T21:46:46.602Z,100800.31
2018-02-22T21:49:16.502Z,100794.58
2018-02-22T21:51:47.319Z,100803.11
2018-02-22T21:54:16.419Z,100809.75
2018-02-22T21:56:45.556Z,100805.90
2018-02-22T21:59:15.414Z,100802.95
2018-02-22T22:01:45.290Z,100810.66
2018-02-22T22:04:14.406Z,100802.02
2018-02-22T22:06:43.505Z,100802.81
2018-02-22T22:09:12.640Z,100811.42
2018-02-22T22:11:42.529Z,100821.77
2018-02-22T22:14:11.665Z,100814.88
2018-02-22T22:16:40.772Z,100811.94
2018-02-22T22:19:10.452Z,100806.57
2018-02-22T22:21:39.554Z,100810.79
2018-02-22T22:24:08.680Z,100807.17
2018-02-22T22:26:37.763Z,100809.15
2018-02-22T22:29:08.059Z,100810.88
2018-02-22T22:31:37.122Z,100810.42
2018-02-22T22:34:06.854Z,100809.81
2018-02-22T22:36:35.937Z,100809.70
2018-02-22T22:39:05.223Z,100805.72
2018-02-22T22:41:34.315Z,100807.94
2018-02-22T22:44:03.460Z,100804.48
2018-02-22T22:46:32.514Z,100810.63
2018-02-22T22:49:01.623Z,100811.97
2018-02-22T22:51:30.731Z,100812.79
2018-02-22T22:54:00.077Z,100808.97
2018-02-22T22:56:29.272Z,100809.33
2018-02-22T22:58:58.442Z,100808.97
2018-02-22T23:01:27.549Z,100802.87
2018-02-22T23:03:56.716Z,100801.53
2018-02-22T23:06:25.877Z,100799.59
2018-02-22T23:08:55.814Z,100804.59
2018-02-22T23:11:24.980Z,100798.92
2018-02-22T23:13:54.105Z,100790.91
2018-02-22T23:16:23.298Z,100798.13
2018-02-22T23:18:53.296Z,100787.45
2018-02-22T23:21:22.382Z,100788.55
2018-02-22T23:23:52.303Z,100788.00
2018-02-22T23:26:21.389Z,100781.50
2018-02-22T23:28:50.488Z,100789.55
2018-02-22T23:31:19.598Z,100780.98
2018-02-22T23:33:49.481Z,100785.66
2018-02-22T23:36:18.576Z,100784.14
2018-02-22T23:38:55.931Z,100782.39
2018-02-22T23:54:50.523Z,100783.10
2018-02-22T23:57:19.639Z,100775.89
2018-02-22T23:59:48.727Z,100778.31
